دمياط, مصر

10:23 PM EET on دسمبر 10, 2016 (GMT +0200)
Port Said | | Change Station

Elev 7 ft 31.28 °N, 32.24 °E | Updated 23 minutes ago

غائم جزئياً
غائم جزئياً
63 °F
Feels Like 63 °F
N
13
ريح متغير ريح from NW

هذا اليوم
High -- | Low -- °F
--% Chance of Precip.
Yesterday
High -- | Low -- °F
Precip. -- في
الضغط 30.21 في
وضوح الرؤية 6.2 أميال
سحابات غيوم متفرقة 3000 ft
نقطة الندى 50 °F
الرطوبة 63%
Rainfall 0.00 في
عمق الثلج Not available.
6:42 AM 4:51 PM
الأحدب الأول, 86% visible
METAR HEPS 102000Z 31011KT 9999 SCT030 17/10 Q1023 NOSIG
الضغط 30.21 في
وضوح الرؤية 6.2 أميال
سحابات غيوم متفرقة 3000 ft
نقطة الندى 50 °F
الرطوبة 63%
Rainfall 0.00 في
عمق الثلج Not available.
6:42 AM 4:51 PM
الأحدب الأول, 86% visible
METAR HEPS 102000Z 31011KT 9999 SCT030 17/10 Q1023 NOSIG

10-Day Weather Forecast

No radar image for this location.
×

Almanac

علم الفلك

Dec. 10, 2016 Rise Set
Actual Time
Civil Twilight
Nautical Twilight
Astronomical Twilight
قمر
Length Of Visible Light
طول الیوم
Tomorrow will be .
, % of the Moon is Illuminated

Today's Extremes

Country Highs Country Lows

Community

WunderPhotos

Upload Photos

1,956,651 photos uploaded!

WunderBlog® & News

Nearby

جودة الهواء

  جودة الهواء AQ Index Pollutant
Not available.

عمق الثلج

Station Depth Elevation

Earthquake Activity

City Distance Mag. Time & Date
Minimum magnitude displayed is 2.5.

Coastal Water Temperatures

مكان درجات الحرارة

Stations

Nearby Weather Stations

Station Location الحرارة رياح باردة نقطة الندى الرطوبة ريح Precip. Elev تحديث Type